Terminal Aerodrome Forecast
Issued by NWS Cleveland, OH

Home | Current Version | Previous Version | Text Only | Print | Product List | Glossary On
Versions: 1 2 3 4 5 6 7 8 9 10 11 12 13 14 15 16 17
000
FTUS41 KCLE 180540
TAFCAK
TAF
KCAK 180540Z 1806/1906 21006KT P6SM OVC035
     FM181300 21009KT 4SM BR VCSH OVC007
      TEMPO 1815/1819 1SM -SHRA BR OVC004
     FM182200 23010KT 5SM BR OVC007=

USA.gov is the U.S. government's official web portal to all federal, state and local government web resources and services.